Ana Sayfa
METAR-TAF:

METAR-TAF

Havaalanları :

Coonabarabran, Avustralya

Enlem: 31-20S, Boylam: 149-16E, yükseklik: 645 m

Güncel hava durumu gözlemi

Rapor saat 12:00 UTC de 12 dakika önce yapıldı.
Rüzgar güneydan 7 kt
Sıcaklık 26°C
Nem 61%
Basınç 1016 hPa
Görüş mesafesi 10 km veya daha fazla

METAR: YCBB 291200Z AUTO 18007KT 9999 // NCD 26/18 Q1016

Saat: 23:12 (12:12 UTC)


TAF: eksik

4.000'den fazla havaalanı için hava durumu gözlemleri ve tahminleri (METAR ve TAF raporları).

Kullanılabilir istasyonlar harita üzerinde sarı ve kırmızı noktalarla gösterilir.

İstasyonun adını görmek için fareyi noktanın üzerinde gezdirin.

Sonrasında hava gözlem ve tahminlerini görmek için tıklayın.

Haritayı değiştirmek için: yaklaştırmak için siyah artı işaretli yeşil düğmeye ve uzaklaştırmak için de eksi işaretli düğmeye hızla tıklayın; bitişik haritalar için yeşil okları kullanın.


METAR-TAF: